Archiv-/Tagesdaten

--Timestamp---	Temp	Chill	HIndex	Humid	Dewpt	 Wind 	HiWind	WindDir	Rain 	Barom	Solar	 ET  	 UV 
--------------	----	-----	------	-----	-----	------	------	-------	-----	-----	-----	-----	----
20091221 00:00	-2.1	-7.1	-2.1	91	-3.3	16	31	248	0.0	1005.4	0	0.000	0.0
20091221 00:05	-2.0	-7.1	-2.0	91	-3.3	16	26	270	0.0	1005.2	0	0.000	0.0
20091221 00:10	-2.0	-7.1	-2.0	91	-3.3	16	26	270	0.0	1005.1	0	0.000	0.0
20091221 00:15	-2.0	-6.8	-2.0	91	-3.3	14	23	248	0.0	1005.3	0	0.000	0.0
20091221 00:20	-1.9	-6.3	-1.9	90	-3.4	13	26	270	0.0	1005.3	0	0.000	0.0
20091221 00:25	-1.9	-6.7	-1.9	90	-3.4	14	23	248	0.0	1005.1	0	0.000	0.0
20091221 00:30	-1.9	-6.7	-1.9	90	-3.4	14	21	248	0.0	1005.2	0	0.000	0.0
20091221 00:35	-1.9	-5.9	-1.9	90	-3.3	11	19	248	0.0	1005.1	0	0.000	0.0
20091221 00:40	-1.9	-5.9	-1.9	90	-3.3	11	21	270	0.0	1005.2	0	0.000	0.0
20091221 00:45	-1.9	-6.0	-1.9	90	-3.4	11	19	248	0.0	1005.2	0	0.000	0.0
20091221 00:50	-1.9	-6.0	-1.9	90	-3.4	11	18	248	0.0	1005.4	0	0.000	0.0
20091221 00:55	-1.9	-6.0	-1.9	89	-3.5	11	23	270	0.0	1005.3	0	0.000	0.0
20091221 01:00	-1.9	-6.0	-1.9	89	-3.5	11	21	270	0.0	1005.4	0	0.000	0.0
20091221 01:05	-1.9	-6.0	-1.9	89	-3.5	11	19	248	0.0	1005.6	0	0.000	0.0
20091221 01:10	-1.9	-5.5	-1.9	89	-3.5	10	19	270	0.0	1005.5	0	0.000	0.0
20091221 01:15	-1.8	-5.8	-1.8	89	-3.4	11	21	270	0.0	1005.5	0	0.000	0.0
20091221 01:20	-1.8	-5.8	-1.8	89	-3.3	11	19	248	0.0	1005.6	0	0.000	0.0
20091221 01:25	-1.8	-5.3	-1.8	88	-3.5	10	21	248	0.0	1005.5	0	0.000	0.0
20091221 01:30	-1.7	-5.3	-1.7	88	-3.4	10	18	270	0.0	1005.7	0	0.000	0.0
20091221 01:35	-1.7	-5.7	-1.7	88	-3.4	11	19	248	0.0	1005.7	0	0.000	0.0
20091221 01:40	-1.7	-5.7	-1.7	88	-3.4	11	26	248	0.0	1005.8	0	0.000	0.0
20091221 01:45	-1.7	-5.7	-1.7	87	-3.6	11	19	270	0.0	1005.8	0	0.000	0.0
20091221 01:50	-1.7	-5.6	-1.7	87	-3.5	11	23	248	0.0	1006.0	0	0.000	0.0
20091221 01:55	-1.7	-5.2	-1.7	87	-3.5	10	16	270	0.0	1005.9	0	0.000	0.0
20091221 02:00	-1.6	-5.1	-1.6	87	-3.5	10	19	248	0.0	1006.0	0	0.000	0.0
20091221 02:05	-1.6	-5.1	-1.6	86	-3.6	10	18	270	0.0	1006.0	0	0.000	0.0
20091221 02:10	-1.6	-5.1	-1.6	86	-3.6	10	18	270	0.0	1006.3	0	0.000	0.0
20091221 02:15	-1.5	-5.4	-1.5	86	-3.5	11	19	270	0.0	1006.3	0	0.000	0.0
20091221 02:20	-1.5	-5.4	-1.5	86	-3.5	11	21	248	0.0	1006.3	0	0.000	0.0
20091221 02:25	-1.4	-5.3	-1.4	86	-3.4	11	23	248	0.0	1006.5	0	0.000	0.0
20091221 02:30	-1.3	-5.2	-1.3	85	-3.5	11	26	248	0.0	1006.5	0	0.000	0.0
20091221 02:35	-1.3	-5.2	-1.3	85	-3.5	11	19	248	0.0	1006.6	0	0.000	0.0
20091221 02:40	-1.3	-5.2	-1.3	85	-3.5	11	19	248	0.0	1006.5	0	0.000	0.0
20091221 02:45	-1.3	-5.2	-1.3	85	-3.5	11	21	248	0.0	1006.5	0	0.000	0.0
20091221 02:50	-1.3	-4.8	-1.3	85	-3.5	10	19	270	0.0	1006.6	0	0.000	0.0
20091221 02:55	-1.3	-4.8	-1.3	85	-3.5	10	23	270	0.0	1006.7	0	0.000	0.0
20091221 03:00	-1.3	-4.8	-1.3	85	-3.5	10	19	270	0.0	1006.9	0	0.025	0.0
20091221 03:05	-1.3	-4.3	-1.3	85	-3.5	8	16	248	0.0	1006.9	0	0.000	0.0
20091221 03:10	-1.3	-4.8	-1.3	85	-3.5	10	18	270	0.0	1007.0	0	0.000	0.0
20091221 03:15	-1.3	-4.8	-1.3	85	-3.5	10	18	270	0.0	1007.0	0	0.000	0.0
20091221 03:20	-1.3	-4.8	-1.3	85	-3.5	10	18	270	0.0	1007.2	0	0.000	0.0
20091221 03:25	-1.3	-4.8	-1.3	85	-3.5	10	19	270	0.0	1007.2	0	0.000	0.0
20091221 03:30	-1.3	-4.3	-1.3	85	-3.5	8	16	248	0.0	1007.3	0	0.000	0.0
20091221 03:35	-1.3	-4.3	-1.3	85	-3.5	8	18	248	0.0	1007.3	0	0.000	0.0
20091221 03:40	-1.4	-4.4	-1.4	85	-3.6	8	11	248	0.0	1007.3	0	0.000	0.0
20091221 03:45	-1.4	-4.9	-1.4	85	-3.6	10	19	248	0.0	1007.4	0	0.000	0.0
20091221 03:50	-1.4	-4.4	-1.4	85	-3.6	8	18	248	0.0	1007.4	0	0.000	0.0
20091221 03:55	-1.3	-4.3	-1.3	85	-3.5	8	16	248	0.0	1007.4	0	0.000	0.0
20091221 04:00	-1.3	-4.8	-1.3	85	-3.5	10	18	270	0.0	1007.3	0	0.000	0.0
20091221 04:05	-1.3	-4.7	-1.3	85	-3.5	10	19	270	0.0	1007.6	0	0.000	0.0
20091221 04:10	-1.3	-5.2	-1.3	84	-3.7	11	23	270	0.0	1007.6	0	0.000	0.0
20091221 04:15	-1.3	-5.9	-1.3	83	-3.8	14	23	270	0.0	1007.5	0	0.000	0.0
20091221 04:20	-1.4	-5.4	-1.4	83	-4.0	11	23	270	0.0	1007.7	0	0.000	0.0
20091221 04:25	-1.5	-4.5	-1.5	83	-4.0	8	16	292	0.0	1007.8	0	0.000	0.0
20091221 04:30	-1.6	-5.1	-1.6	83	-4.1	10	21	292	0.0	1007.7	0	0.000	0.0
20091221 04:35	-1.7	-5.2	-1.7	83	-4.2	10	18	270	0.0	1007.7	0	0.000	0.0
20091221 04:40	-1.7	-4.1	-1.7	83	-4.2	6	16	270	0.0	1007.8	0	0.000	0.0
20091221 04:45	-1.7	-4.8	-1.7	83	-4.2	8	14	292	0.0	1007.7	0	0.000	0.0
20091221 04:50	-1.7	-4.2	-1.7	83	-4.2	6	10	292	0.0	1007.7	0	0.000	0.0
20091221 04:55	-1.8	-1.8	-1.8	83	-4.3	5	10	292	0.0	1007.8	0	0.000	0.0
20091221 05:00	-1.8	-1.8	-1.8	83	-4.3	3	6	292	0.0	1007.8	0	0.025	0.0
20091221 05:05	-1.8	-1.8	-1.8	83	-4.3	3	8	248	0.0	1007.7	0	0.000	0.0
20091221 05:10	-1.8	-1.8	-1.8	83	-4.3	2	5	248	0.0	1007.9	0	0.000	0.0
20091221 05:15	-1.8	-1.8	-1.8	83	-4.3	3	6	248	0.0	1008.0	0	0.000	0.0
20091221 05:20	-1.9	-1.9	-1.9	83	-4.4	2	5	248	0.0	1008.0	0	0.000	0.0
20091221 05:25	-1.9	-1.9	-1.9	83	-4.4	0	3	248	0.0	1007.9	0	0.000	0.0
20091221 05:30	-1.9	-1.9	-1.9	83	-4.4	2	3	248	0.0	1007.7	0	0.000	0.0
20091221 05:35	-1.9	-1.9	-1.9	83	-4.4	2	5	248	0.0	1007.8	0	0.000	0.0
20091221 05:40	-1.9	-1.9	-1.9	84	-4.3	2	3	248	0.0	1007.7	0	0.000	0.0
20091221 05:45	-1.9	-1.9	-1.9	84	-4.3	3	5	248	0.0	1007.7	0	0.000	0.0
20091221 05:50	-2.0	-2.0	-2.0	84	-4.3	2	3	248	0.0	1007.7	0	0.000	0.0
20091221 05:55	-2.0	-2.0	-2.0	84	-4.3	0	2	248	0.0	1007.8	0	0.000	0.0
20091221 06:00	-2.1	-2.1	-2.1	84	-4.4	0	3	248	0.0	1007.8	0	0.000	0.0
20091221 06:05	-2.2	-2.2	-2.2	84	-4.5	2	5	248	0.0	1007.7	0	0.000	0.0
20091221 06:10	-2.2	-2.2	-2.2	84	-4.5	0	3	248	0.0	1007.6	0	0.000	0.0
20091221 06:15	-2.2	-2.2	-2.2	84	-4.5	2	3	248	0.0	1007.6	0	0.000	0.0
20091221 06:20	-2.2	-2.2	-2.2	85	-4.3	0	3	248	0.0	1007.6	0	0.000	0.0
20091221 06:25	-2.2	-2.2	-2.2	85	-4.3	2	5	248	0.0	1007.7	0	0.000	0.0
20091221 06:30	-2.1	-2.1	-2.1	85	-4.3	0	3	248	0.0	1007.8	0	0.000	0.0
20091221 06:35	-2.1	-2.1	-2.1	85	-4.2	0	3	248	0.0	1007.8	0	0.000	0.0
20091221 06:40	-2.1	-2.1	-2.1	86	-4.1	2	5	248	0.0	1007.9	0	0.000	0.0
20091221 06:45	-2.0	-2.0	-2.0	86	-4.0	2	3	248	0.0	1007.9	0	0.000	0.0
20091221 06:50	-1.9	-1.9	-1.9	86	-4.0	2	5	248	0.0	1007.8	0	0.000	0.0
20091221 06:55	-1.9	-1.9	-1.9	87	-3.8	3	6	248	0.0	1007.8	0	0.000	0.0
20091221 07:00	-1.8	-1.8	-1.8	88	-3.6	5	10	180	0.0	1007.9	0	0.000	0.0
20091221 07:05	-1.8	-1.8	-1.8	88	-3.6	2	5	180	0.0	1007.8	0	0.000	0.0
20091221 07:10	-1.8	-1.8	-1.8	88	-3.6	3	6	180	0.0	1007.9	0	0.000	0.0
20091221 07:15	-1.8	-1.8	-1.8	89	-3.4	5	10	158	0.0	1007.9	0	0.000	0.0
20091221 07:20	-1.8	-1.8	-1.8	89	-3.4	3	8	158	0.0	1008.0	0	0.000	0.0
20091221 07:25	-1.8	-1.8	-1.8	89	-3.4	5	8	202	0.2	1008.3	0	0.000	0.0
20091221 07:30	-1.8	-1.8	-1.8	90	-3.3	3	6	158	0.0	1008.2	0	0.000	0.0
20091221 07:35	-1.8	-1.8	-1.8	90	-3.3	3	6	158	0.0	1008.3	0	0.000	0.0
20091221 07:40	-1.8	-1.8	-1.8	90	-3.3	3	6	158	0.0	1008.2	0	0.000	0.0
20091221 07:45	-1.8	-1.8	-1.8	90	-3.3	3	8	180	0.0	1008.3	0	0.000	0.0
20091221 07:50	-1.8	-1.8	-1.8	90	-3.3	3	6	180	0.0	1008.4	0	0.000	0.0
20091221 07:55	-1.8	-1.8	-1.8	90	-3.3	3	6	180	0.2	1008.3	0	0.000	0.0
20091221 08:00	-1.8	-1.8	-1.8	90	-3.2	3	6	180	0.0	1008.2	0	0.000	0.0
20091221 08:05	-1.8	-1.8	-1.8	90	-3.3	2	6	180	0.2	1008.2	0	0.000	0.0
20091221 08:10	-1.8	-1.8	-1.8	90	-3.3	3	5	158	0.0	1008.2	0	0.000	0.0
20091221 08:15	-1.8	-1.8	-1.8	90	-3.3	2	6	158	0.2	1008.2	0	0.000	0.0
20091221 08:20	-1.8	-1.8	-1.8	91	-3.1	3	6	158	0.0	1008.3	0	0.000	0.0
20091221 08:25	-1.9	-1.9	-1.9	90	-3.4	3	8	158	0.0	1008.4	0	0.000	0.0
20091221 08:30	-1.9	-1.9	-1.9	90	-3.4	3	10	158	0.0	1008.4	0	0.000	0.0
20091221 08:35	-2.0	-2.0	-2.0	91	-3.3	3	8	158	0.2	1008.5	0	0.000	0.0
20091221 08:40	-2.0	-2.0	-2.0	91	-3.3	3	6	158	0.0	1008.6	4	0.000	0.0
20091221 08:45	-2.0	-2.0	-2.0	91	-3.3	3	10	180	0.2	1008.6	5	0.000	0.0
20091221 08:50	-1.9	-1.9	-1.9	91	-3.2	3	6	158	0.0	1008.5	5	0.000	0.0
20091221 08:55	-1.9	-1.9	-1.9	91	-3.2	2	6	158	0.2	1008.4	7	0.000	0.0
20091221 09:00	-1.9	-1.9	-1.9	91	-3.2	2	6	180	0.0	1008.5	7	0.000	0.0
20091221 09:05	-1.8	-1.8	-1.8	91	-3.1	2	6	158	0.0	1008.6	7	0.000	0.0
20091221 09:10	-1.9	-1.9	-1.9	91	-3.2	2	5	158	0.0	1008.5	8	0.000	0.0
20091221 09:15	-1.9	-1.9	-1.9	91	-3.2	2	5	158	0.0	1008.5	9	0.000	0.0
20091221 09:20	-2.0	-2.0	-2.0	91	-3.3	3	6	158	0.2	1008.4	10	0.000	0.0
20091221 09:25	-1.9	-1.9	-1.9	91	-3.2	2	8	158	0.0	1008.5	11	0.000	0.0
20091221 09:30	-1.9	-1.9	-1.9	91	-3.2	2	5	180	0.0	1008.4	11	0.000	0.0
20091221 09:35	-1.9	-1.9	-1.9	91	-3.2	3	10	158	0.0	1008.5	12	0.000	0.0
20091221 09:40	-1.9	-1.9	-1.9	91	-3.2	3	10	180	0.0	1008.4	11	0.000	0.0
20091221 09:45	-1.9	-1.9	-1.9	91	-3.2	3	8	135	0.0	1008.2	15	0.000	0.0
20091221 09:50	-1.8	-1.8	-1.8	91	-3.1	5	10	158	0.2	1008.2	17	0.000	0.0
20091221 09:55	-1.8	-1.8	-1.8	91	-3.0	2	8	158	0.0	1008.2	18	0.000	0.0
20091221 10:00	-1.7	-1.7	-1.7	91	-3.0	3	10	135	0.0	1008.2	18	0.000	0.0
20091221 10:05	-1.7	-1.7	-1.7	91	-2.9	3	11	135	0.0	1007.9	20	0.000	0.0
20091221 10:10	-1.7	-1.7	-1.7	91	-2.9	5	11	158	0.0	1007.9	20	0.000	0.0
20091221 10:15	-1.7	-1.7	-1.7	91	-2.9	3	8	180	0.0	1007.8	24	0.000	0.0
20091221 10:20	-1.7	-1.7	-1.7	91	-2.9	3	8	135	0.0	1007.8	26	0.000	0.0
20091221 10:25	-1.6	-1.6	-1.6	90	-3.0	3	10	158	0.0	1007.8	24	0.000	0.0
20091221 10:30	-1.6	-1.6	-1.6	90	-3.0	5	10	135	0.0	1007.8	21	0.000	0.0
20091221 10:35	-1.5	-1.5	-1.5	90	-2.9	3	6	180	0.0	1007.8	20	0.000	0.0
20091221 10:40	-1.5	-1.5	-1.5	90	-2.9	3	10	180	0.0	1007.7	18	0.000	0.0
20091221 10:45	-1.5	-1.5	-1.5	90	-2.9	3	13	158	0.0	1007.6	16	0.000	0.0
20091221 10:50	-1.5	-1.5	-1.5	90	-2.9	5	11	135	0.0	1007.5	19	0.000	0.0
20091221 10:55	-1.5	-1.5	-1.5	90	-2.9	5	10	135	0.0	1007.4	22	0.000	0.0
20091221 11:00	-1.4	-1.4	-1.4	90	-2.9	5	10	135	0.0	1007.2	21	0.000	0.0
20091221 11:05	-1.5	-1.5	-1.5	89	-3.1	5	10	135	0.2	1006.9	26	0.000	0.0
20091221 11:10	-1.6	-1.6	-1.6	89	-3.1	5	10	135	0.0	1006.8	30	0.000	0.0
20091221 11:15	-1.5	-1.5	-1.5	89	-3.1	5	11	135	0.0	1006.7	27	0.000	0.0
20091221 11:20	-1.5	-1.5	-1.5	89	-3.1	5	14	135	0.0	1006.7	27	0.000	0.0
20091221 11:25	-1.4	-3.8	-1.4	88	-3.2	6	16	135	0.0	1006.6	36	0.000	0.0
20091221 11:30	-1.4	-3.8	-1.4	88	-3.2	6	19	158	0.0	1006.5	39	0.000	0.0
20091221 11:35	-1.4	-3.8	-1.4	88	-3.2	6	16	158	0.0	1006.2	41	0.000	0.0
20091221 11:40	-1.4	-3.8	-1.4	87	-3.3	6	13	135	0.0	1006.1	39	0.000	0.0
20091221 11:45	-1.5	-3.9	-1.5	86	-3.5	6	18	135	0.0	1006.0	47	0.000	0.0
20091221 11:50	-1.4	-4.4	-1.4	86	-3.5	8	18	135	0.0	1005.8	46	0.000	0.0
20091221 11:55	-1.5	-3.9	-1.5	86	-3.5	6	16	135	0.0	1005.8	35	0.000	0.0
20091221 12:00	-1.5	-3.9	-1.5	86	-3.5	6	11	135	0.0	1006.0	32	0.025	0.0
20091221 12:05	-1.5	-1.5	-1.5	87	-3.4	5	13	135	0.0	1006.0	40	0.000	0.0
20091221 12:10	-1.4	-3.8	-1.4	87	-3.3	6	11	158	0.0	1006.0	44	0.000	0.0
20091221 12:15	-1.3	-1.3	-1.3	87	-3.2	5	11	135	0.0	1006.1	43	0.000	0.0
20091221 12:20	-1.3	-3.7	-1.3	87	-3.2	6	14	158	0.0	1006.2	38	0.000	0.0
20091221 12:25	-1.3	-1.3	-1.3	87	-3.2	3	11	158	0.0	1006.2	27	0.000	0.0
20091221 12:30	-1.2	-1.2	-1.2	87	-3.1	5	10	135	0.0	1005.9	37	0.000	0.0
20091221 12:35	-1.2	-1.2	-1.2	87	-3.0	5	10	135	0.0	1005.9	41	0.000	0.0
20091221 12:40	-1.1	-1.1	-1.1	87	-2.9	3	10	158	0.0	1005.8	49	0.000	0.0
20091221 12:45	-0.9	-0.9	-0.9	87	-2.8	3	10	158	0.0	1005.8	47	0.000	0.0
20091221 12:50	-0.8	-0.8	-0.8	87	-2.7	3	8	158	0.0	1005.5	56	0.000	0.0
20091221 12:55	-0.8	-0.8	-0.8	86	-2.8	5	10	135	0.0	1005.1	51	0.000	0.0
20091221 13:00	-0.8	-0.8	-0.8	86	-2.8	5	11	158	0.0	1005.0	54	0.025	0.1
20091221 13:05	-0.9	-0.9	-0.9	85	-3.1	5	14	135	0.0	1004.8	61	0.000	0.5
20091221 13:10	-1.0	-1.0	-1.0	86	-3.0	3	6	135	0.0	1005.0	80	0.000	0.5
20091221 13:15	-1.0	-1.0	-1.0	86	-3.0	5	11	158	0.0	1005.0	91	0.000	0.2
20091221 13:20	-1.0	-1.0	-1.0	86	-3.0	5	8	158	0.0	1005.1	93	0.000	0.0
20091221 13:25	-0.9	-0.9	-0.9	86	-3.0	5	6	135	0.0	1004.9	98	0.000	0.0
20091221 13:30	-1.0	-1.0	-1.0	92	-2.1	3	8	112	0.0	1004.7	101	0.000	0.0
20091221 13:35	-1.1	-1.1	-1.1	86	-3.1	3	8	135	0.0	1004.7	99	0.000	0.1
20091221 13:40	-1.2	-1.2	-1.2	86	-3.2	5	11	135	0.0	1004.4	108	0.000	0.5
20091221 13:45	-1.2	-3.6	-1.2	87	-3.1	6	10	135	0.0	1004.3	114	0.000	0.5
20091221 13:50	-1.2	-1.2	-1.2	87	-3.1	5	10	135	0.0	1004.2	116	0.000	0.5
20091221 13:55	-1.2	-1.2	-1.2	87	-3.0	3	8	135	0.0	1004.2	124	0.000	0.5
20091221 14:00	-1.0	-1.0	-1.0	87	-2.9	5	14	135	0.0	1004.1	120	0.025	0.4
20091221 14:05	-0.9	-0.9	-0.9	86	-3.0	5	10	135	0.0	1003.8	108	0.000	0.0
20091221 14:10	-0.9	-0.9	-0.9	86	-3.0	5	8	135	0.0	1003.7	102	0.000	0.0
20091221 14:15	-1.0	-1.0	-1.0	86	-3.0	5	10	135	0.0	1003.5	95	0.000	0.0
20091221 14:20	-1.0	-1.0	-1.0	86	-3.0	5	10	135	0.0	1003.4	87	0.000	0.0
20091221 14:25	-1.0	-1.0	-1.0	87	-2.9	5	10	135	0.0	1003.3	83	0.000	0.0
20091221 14:30	-0.9	-0.9	-0.9	87	-2.8	5	10	135	0.0	1003.4	81	0.000	0.0
20091221 14:35	-0.9	-0.9	-0.9	87	-2.8	3	10	135	0.0	1003.4	81	0.000	0.0
20091221 14:40	-0.9	-0.9	-0.9	87	-2.8	5	10	135	0.0	1003.1	79	0.000	0.0
20091221 14:45	-0.9	-0.9	-0.9	87	-2.8	5	10	135	0.0	1003.1	81	0.000	0.0
20091221 14:50	-0.9	-0.9	-0.9	87	-2.8	5	13	135	0.0	1003.2	77	0.000	0.0
20091221 14:55	-0.9	-0.9	-0.9	87	-2.8	5	10	135	0.0	1003.3	70	0.000	0.0
20091221 15:00	-0.9	-0.9	-0.9	87	-2.8	3	10	135	0.0	1003.4	62	0.025	0.0
20091221 15:05	-1.0	-1.0	-1.0	86	-3.0	5	10	135	0.0	1003.2	54	0.000	0.0
20091221 15:10	-1.1	-1.1	-1.1	86	-3.1	3	8	135	0.0	1003.1	47	0.000	0.0
20091221 15:15	-1.2	-1.2	-1.2	86	-3.2	5	11	135	0.0	1002.8	42	0.000	0.0
20091221 15:20	-1.3	-1.3	-1.3	86	-3.3	5	10	135	0.0	1002.8	36	0.000	0.0
20091221 15:25	-1.4	-1.4	-1.4	86	-3.4	5	10	135	0.0	1002.7	31	0.000	0.0
20091221 15:30	-1.6	-4.0	-1.6	87	-3.4	6	11	135	0.0	1002.8	27	0.000	0.0
20091221 15:35	-1.6	-4.6	-1.6	88	-3.3	8	16	112	0.0	1002.6	26	0.000	0.0
20091221 15:40	-1.7	-4.7	-1.7	88	-3.4	8	16	112	0.0	1002.3	22	0.000	0.0
20091221 15:45	-1.7	-4.7	-1.7	88	-3.4	8	16	112	0.0	1002.2	19	0.000	0.0
20091221 15:50	-1.7	-4.8	-1.7	89	-3.3	8	14	112	0.0	1002.2	18	0.000	0.0
20091221 15:55	-1.7	-4.2	-1.7	89	-3.3	6	14	135	0.0	1002.3	15	0.000	0.0
20091221 16:00	-1.7	-4.2	-1.7	89	-3.3	6	11	135	0.0	1002.4	12	0.025	0.0
20091221 16:05	-1.7	-4.2	-1.7	89	-3.3	6	11	112	0.0	1002.3	9	0.000	0.0
20091221 16:10	-1.7	-4.1	-1.7	89	-3.2	6	10	112	0.0	1002.2	6	0.000	0.0
20091221 16:15	-1.7	-1.7	-1.7	89	-3.2	5	10	135	0.0	1002.2	1	0.000	0.0
20091221 16:20	-1.7	-1.7	-1.7	89	-3.2	5	10	158	0.0	1002.2	0	0.000	0.0
20091221 16:25	-1.6	-1.6	-1.6	89	-3.2	5	8	112	0.0	1002.1	0	0.000	0.0
20091221 16:30	-1.6	-1.6	-1.6	89	-3.2	5	10	135	0.0	1001.9	0	0.000	0.0
20091221 16:35	-1.6	-1.6	-1.6	89	-3.1	3	8	112	0.0	1002.0	0	0.000	0.0
20091221 16:40	-1.6	-1.6	-1.6	89	-3.1	5	8	135	0.0	1002.0	0	0.000	0.0
20091221 16:45	-1.6	-1.6	-1.6	89	-3.2	3	6	112	0.0	1002.0	0	0.000	0.0
20091221 16:50	-1.6	-1.6	-1.6	89	-3.2	0	3	135	0.0	1001.9	0	0.000	0.0
20091221 16:55	-1.6	-1.6	-1.6	89	-3.2	0	3	135	0.0	1002.0	0	0.000	0.0
20091221 17:00	-1.6	-1.6	-1.6	89	-3.2	0	0	-100000	0.0	1001.9	0	0.000	0.0
20091221 17:05	-1.7	-1.7	-1.7	89	-3.2	0	0	-100000	0.0	1002.0	0	0.000	0.0
20091221 17:10	-1.8	-1.8	-1.8	89	-3.3	0	3	135	0.0	1001.8	0	0.000	0.0
20091221 17:15	-1.8	-1.8	-1.8	89	-3.3	0	3	135	0.0	1001.8	0	0.000	0.0
20091221 17:20	-1.8	-1.8	-1.8	89	-3.3	2	3	135	0.0	1001.7	0	0.000	0.0
20091221 17:25	-1.8	-1.8	-1.8	88	-3.5	0	0	-100000	0.0	1001.8	0	0.000	0.0
20091221 17:30	-1.8	-1.8	-1.8	88	-3.6	0	0	-100000	0.0	1001.7	0	0.000	0.0
20091221 17:35	-1.8	-1.8	-1.8	88	-3.6	0	0	-100000	0.0	1001.7	0	0.000	0.0
20091221 17:40	-1.9	-1.9	-1.9	88	-3.6	0	0	-100000	0.0	1001.8	0	0.000	0.0
20091221 17:45	-1.9	-1.9	-1.9	88	-3.7	0	2	135	0.0	1001.8	0	0.000	0.0
20091221 17:50	-1.9	-1.9	-1.9	89	-3.5	0	2	135	0.0	1001.8	0	0.000	0.0
20091221 17:55	-1.9	-1.9	-1.9	88	-3.7	0	0	-100000	0.0	1001.9	0	0.000	0.0
20091221 18:00	-2.0	-2.0	-2.0	88	-3.7	0	0	-100000	0.0	1001.8	0	0.000	0.0
20091221 18:05	-2.0	-2.0	-2.0	88	-3.7	0	0	-100000	0.0	1001.7	0	0.000	0.0
20091221 18:10	-2.1	-2.1	-2.1	88	-3.8	0	0	-100000	0.0	1001.7	0	0.000	0.0
20091221 18:15	-2.1	-2.1	-2.1	88	-3.8	0	0	-100000	0.0	1001.6	0	0.000	0.0
20091221 18:20	-2.2	-2.2	-2.2	89	-3.7	0	3	135	0.0	1001.4	0	0.000	0.0
20091221 18:25	-2.2	-2.2	-2.2	89	-3.7	3	5	135	0.0	1001.3	0	0.000	0.0
20091221 18:30	-2.2	-2.2	-2.2	89	-3.7	2	3	135	0.0	1001.3	0	0.000	0.0
20091221 18:35	-2.2	-2.2	-2.2	89	-3.8	2	3	135	0.0	1001.2	0	0.000	0.0
20091221 18:40	-2.3	-2.3	-2.3	89	-3.8	2	5	135	0.0	1001.0	0	0.000	0.0
20091221 18:45	-2.3	-2.3	-2.3	89	-3.8	3	6	135	0.0	1000.9	0	0.000	0.0
20091221 18:50	-2.2	-2.2	-2.2	89	-3.8	3	6	135	0.0	1000.7	0	0.000	0.0
20091221 18:55	-2.2	-2.2	-2.2	89	-3.7	5	6	112	0.0	1000.6	0	0.000	0.0
20091221 19:00	-2.2	-2.2	-2.2	89	-3.7	3	5	112	0.0	1000.5	0	0.000	0.0
20091221 19:05	-2.1	-2.1	-2.1	89	-3.7	2	5	112	0.0	1000.4	0	0.000	0.0
20091221 19:10	-2.1	-2.1	-2.1	89	-3.7	2	5	158	0.0	1000.2	0	0.000	0.0
20091221 19:15	-2.0	-2.0	-2.0	89	-3.6	3	6	158	0.0	1000.1	0	0.000	0.0
20091221 19:20	-1.9	-1.9	-1.9	88	-3.6	3	8	135	0.0	1000.0	0	0.000	0.0
20091221 19:25	-1.8	-1.8	-1.8	87	-3.7	3	10	135	0.0	999.9	0	0.000	0.0
20091221 19:30	-1.8	-1.8	-1.8	87	-3.7	2	6	135	0.0	999.9	0	0.000	0.0
20091221 19:35	-1.8	-1.8	-1.8	87	-3.7	3	10	135	0.0	999.9	0	0.000	0.0
20091221 19:40	-1.8	-1.8	-1.8	87	-3.7	3	8	135	0.0	999.9	0	0.000	0.0
20091221 19:45	-1.8	-1.8	-1.8	86	-3.8	5	10	135	0.0	999.7	0	0.000	0.0
20091221 19:50	-1.8	-1.8	-1.8	86	-3.8	5	10	135	0.0	999.5	0	0.000	0.0
20091221 19:55	-1.8	-4.3	-1.8	86	-3.9	6	10	135	0.0	999.5	0	0.000	0.0
20091221 20:00	-1.8	-1.8	-1.8	86	-3.8	3	8	135	0.0	999.6	0	0.000	0.0
20091221 20:05	-1.8	-1.8	-1.8	86	-3.9	3	6	135	0.0	999.5	0	0.000	0.0
20091221 20:10	-1.8	-1.8	-1.8	86	-3.9	5	10	135	0.0	999.4	0	0.000	0.0
20091221 20:15	-1.9	-1.9	-1.9	86	-3.9	5	8	135	0.0	999.3	0	0.000	0.0
20091221 20:20	-1.9	-1.9	-1.9	86	-3.9	5	14	135	0.0	999.0	0	0.000	0.0
20091221 20:25	-1.9	-1.9	-1.9	87	-3.8	5	10	135	0.0	999.1	0	0.000	0.0
20091221 20:30	-1.9	-1.9	-1.9	87	-3.8	3	8	135	0.0	998.9	0	0.000	0.0
20091221 20:35	-1.9	-1.9	-1.9	86	-3.9	5	8	135	0.0	998.7	0	0.000	0.0
20091221 20:40	-1.9	-1.9	-1.9	87	-3.8	5	11	135	0.0	998.4	0	0.000	0.0
20091221 20:45	-1.9	-4.4	-1.9	86	-3.9	6	11	135	0.0	998.4	0	0.000	0.0
20091221 20:50	-1.8	-4.3	-1.8	86	-3.9	6	16	135	0.0	998.5	0	0.000	0.0
20091221 20:55	-1.8	-1.8	-1.8	86	-3.9	5	14	180	0.0	998.5	0	0.000	0.0
20091221 21:00	-1.8	-1.8	-1.8	86	-3.9	5	13	158	0.0	998.4	0	0.000	0.0
20091221 21:05	-1.8	-1.8	-1.8	86	-3.8	5	11	158	0.0	998.4	0	0.000	0.0
20091221 21:10	-1.8	-1.8	-1.8	86	-3.8	5	10	135	0.0	998.4	0	0.000	0.0
20091221 21:15	-1.8	-4.2	-1.8	86	-3.8	6	16	135	0.0	998.3	0	0.000	0.0
20091221 21:20	-1.7	-1.7	-1.7	86	-3.7	5	11	158	0.0	998.3	0	0.000	0.0
20091221 21:25	-1.6	-4.0	-1.6	86	-3.6	6	13	158	0.0	998.4	0	0.000	0.0
20091221 21:30	-1.5	-5.0	-1.5	85	-3.7	10	18	180	0.0	998.4	0	0.000	0.0
20091221 21:35	-1.4	-4.9	-1.4	85	-3.6	10	18	180	0.0	998.4	0	0.000	0.0
20091221 21:40	-1.3	-4.3	-1.3	85	-3.5	8	14	158	0.0	998.3	0	0.000	0.0
20091221 21:45	-1.1	-5.3	-1.1	84	-3.5	13	23	225	0.0	998.4	0	0.000	0.0
20091221 21:50	-1.0	-4.8	-1.0	83	-3.5	11	21	180	0.0	998.5	0	0.000	0.0
20091221 21:55	-0.9	-3.8	-0.9	83	-3.4	8	19	180	0.0	998.3	0	0.000	0.0
20091221 22:00	-0.8	-3.1	-0.8	83	-3.4	6	11	158	0.0	998.2	0	0.000	0.0
20091221 22:05	-0.8	-0.8	-0.8	83	-3.4	5	14	135	0.0	998.1	0	0.000	0.0
20091221 22:10	-0.8	-0.8	-0.8	83	-3.4	3	6	158	0.0	997.9	0	0.000	0.0
20091221 22:15	-0.8	-0.8	-0.8	83	-3.4	5	8	158	0.0	997.8	0	0.000	0.0
20091221 22:20	-0.7	-0.7	-0.7	83	-3.2	5	10	158	0.0	997.5	0	0.000	0.0
20091221 22:25	-0.6	-3.5	-0.6	83	-3.1	8	14	135	0.0	997.5	0	0.000	0.0
20091221 22:30	-0.6	-2.9	-0.6	83	-3.1	6	16	135	0.0	997.3	0	0.000	0.0
20091221 22:35	-0.7	-3.5	-0.7	82	-3.4	8	14	135	0.0	997.0	0	0.000	0.0
20091221 22:40	-0.6	-2.9	-0.6	82	-3.3	6	13	135	0.0	996.8	0	0.000	0.0
20091221 22:45	-0.6	-3.9	-0.6	81	-3.5	10	19	135	0.0	996.8	0	0.000	0.0
20091221 22:50	-0.6	-3.9	-0.6	82	-3.3	10	16	135	0.0	996.6	0	0.000	0.0
20091221 22:55	-0.7	-4.0	-0.7	82	-3.4	10	18	135	0.0	996.5	0	0.000	0.0
20091221 23:00	-0.6	-2.9	-0.6	82	-3.3	6	16	135	0.0	996.7	0	0.025	0.0
20091221 23:05	-0.5	-3.3	-0.5	82	-3.2	8	18	135	0.0	996.7	0	0.000	0.0
20091221 23:10	-0.5	-2.8	-0.5	82	-3.2	6	10	202	0.0	996.9	0	0.000	0.0
20091221 23:15	-0.5	-3.8	-0.5	83	-3.0	10	21	135	0.0	996.6	0	0.000	0.0
20091221 23:20	-0.4	-2.6	-0.4	82	-3.1	6	16	112	0.0	996.4	0	0.000	0.0
20091221 23:25	-0.2	-3.8	-0.2	80	-3.2	11	23	112	0.0	996.4	0	0.000	0.0
20091221 23:30	0.1	-2.7	0.1	79	-3.1	8	16	135	0.0	996.2	0	0.000	0.0
20091221 23:35	0.3	-2.3	0.3	79	-2.9	8	18	180	0.0	996.0	0	0.000	0.0
20091221 23:40	0.3	0.3	0.3	78	-3.0	5	10	135	0.0	996.0	0	0.000	0.0
20091221 23:45	0.3	0.3	0.3	79	-2.9	5	11	248	0.0	996.3	0	0.000	0.0
20091221 23:50	0.2	0.2	0.2	80	-2.8	3	10	248	0.0	995.9	0	0.000	0.0
20091221 23:55	0.1	0.1	0.1	80	-2.9	5	10	135	0.0	996.2	0	0.000	0.0



Please note the license to use and transfer of this data:
http://creativecommons.org/licenses/by-nc-sa/3.0/deed.en

Bitte beachten sie die Lizenz zur Verwertung und Weitergabe der Daten:
http://creativecommons.org/licenses/by-nc-sa/3.0/deed.de

zurück zur Übersicht der Archivdaten (Monats und Tagesdaten)

Cookies helfen bei der Bereitstellung von Inhalten. Durch die Nutzung dieser Seiten erklärst du dich damit einverstanden, dass Cookies auf deinem Rechner gespeichert werden. Weitere Information